Decoded Metar for OIAW (AHWAZ in IRAN) (IATA:AWZ) | Meteo·Mobile Aviation Weather
aviador You're here:

OIAW Decoded Metar

AHWAZ in IRAN
Report Time2018-09-22 03:30:00
UTC Time2018-09-22 03:56:49
Flight Rules vfr VFR
Wind100° at 06 kt
W.Decomp.*RWY 12: 5.5 kt HW 2.3 kt LCW
W.Rank100° ranks 22
Current wind is above 100° avg. (4.0)
Visibility9999 m
Phenomena:N/A
Clouds:N/A
Expected CloudBase > 7,600 ft AGL from Temp-Dew spread
CeilingNone
Temp28°C (ISA +13)
Dew Point09°C (30% RH)
Heat Index27.1°C
AAT25.6°C
QNH1006 hPa
Density Alt1,978 ft
Elevation72 ft
Report Wrong Elevation
Raw Report
METAR OIAW 220330Z 10006KT CAVOK 28/09 Q1006=

Extra information for OIAW:More info

Metar Taf Metar & Taf Last 4 Metars F.Rules Stats Wind Profile Meteogram Temp Stats Airport Information Weather charts Add Link Nearby VenuesMetar ALERT Operation Metar Decoded Social comments